sensor_id;sensor_type;location;lat;lon;timestamp;pressure;altitude;pressure_sealevel;temperature;humidity
74334;BME280;62753;40.394;-80.022;2023-07-02T00:00:17;96934.05;;;30.72;40.84
74334;BME280;62753;40.394;-80.022;2023-07-02T00:02:42;96933.07;;;31.14;40.11
74334;BME280;62753;40.394;-80.022;2023-07-02T00:05:08;96937.04;;;30.92;39.83
74334;BME280;62753;40.394;-80.022;2023-07-02T00:07:33;96942.22;;;31.07;40.13
74334;BME280;62753;40.394;-80.022;2023-07-02T00:09:58;96938.34;;;30.54;40.44
74334;BME280;62753;40.394;-80.022;2023-07-02T00:12:23;96938.55;;;31.39;39.46
74334;BME280;62753;40.394;-80.022;2023-07-02T00:14:48;96933.70;;;31.61;38.89
74334;BME280;62753;40.394;-80.022;2023-07-02T00:17:14;96925.79;;;31.21;38.91
74334;BME280;62753;40.394;-80.022;2023-07-02T00:19:40;96927.58;;;31.85;38.48
74334;BME280;62753;40.394;-80.022;2023-07-02T00:22:05;96925.50;;;30.93;38.97
74334;BME280;62753;40.394;-80.022;2023-07-02T00:24:30;96925.30;;;31.62;39.06
74334;BME280;62753;40.394;-80.022;2023-07-02T00:26:55;96920.64;;;31.85;38.60
74334;BME280;62753;40.394;-80.022;2023-07-02T00:29:21;96924.74;;;30.79;39.73
74334;BME280;62753;40.394;-80.022;2023-07-02T00:31:45;96927.46;;;31.03;40.42
74334;BME280;62753;40.394;-80.022;2023-07-02T00:34:12;96930.10;;;30.29;40.45
74334;BME280;62753;40.394;-80.022;2023-07-02T00:36:37;96938.18;;;31.13;40.30
74334;BME280;62753;40.394;-80.022;2023-07-02T00:39:01;96941.74;;;30.81;39.97
74334;BME280;62753;40.394;-80.022;2023-07-02T00:41:26;96944.23;;;30.83;40.57
74334;BME280;62753;40.394;-80.022;2023-07-02T00:43:52;96952.67;;;31.00;40.00
74334;BME280;62753;40.394;-80.022;2023-07-02T00:46:17;96949.97;;;31.26;39.83
74334;BME280;62753;40.394;-80.022;2023-07-02T00:48:42;96950.53;;;31.35;39.27
74334;BME280;62753;40.394;-80.022;2023-07-02T00:51:06;96960.57;;;31.78;39.15
74334;BME280;62753;40.394;-80.022;2023-07-02T00:53:33;96960.48;;;31.70;38.99
74334;BME280;62753;40.394;-80.022;2023-07-02T00:55:58;96960.44;;;31.31;38.94
74334;BME280;62753;40.394;-80.022;2023-07-02T00:58:22;96959.71;;;31.64;38.82
74334;BME280;62753;40.394;-80.022;2023-07-02T01:00:48;96970.14;;;31.12;39.15
74334;BME280;62753;40.394;-80.022;2023-07-02T01:03:13;96974.87;;;30.69;40.01
74334;BME280;62753;40.394;-80.022;2023-07-02T01:05:39;96970.91;;;30.44;40.56
74334;BME280;62753;40.394;-80.022;2023-07-02T01:08:03;96980.25;;;30.98;39.67
74334;BME280;62753;40.394;-80.022;2023-07-02T01:10:28;96985.09;;;31.10;39.30
74334;BME280;62753;40.394;-80.022;2023-07-02T01:12:53;96984.40;;;30.25;39.84
74334;BME280;62753;40.394;-80.022;2023-07-02T01:15:18;96990.62;;;31.13;39.52
74334;BME280;62753;40.394;-80.022;2023-07-02T01:17:45;96994.51;;;31.48;38.68
74334;BME280;62753;40.394;-80.022;2023-07-02T01:20:11;96993.36;;;30.72;38.92
74334;BME280;62753;40.394;-80.022;2023-07-02T01:22:35;96989.58;;;31.37;39.01
74334;BME280;62753;40.394;-80.022;2023-07-02T01:25:01;96987.87;;;31.33;38.57
74334;BME280;62753;40.394;-80.022;2023-07-02T01:27:28;96987.02;;;31.05;38.78
74334;BME280;62753;40.394;-80.022;2023-07-02T01:29:52;96990.18;;;30.99;38.57
74334;BME280;62753;40.394;-80.022;2023-07-02T01:32:15;96994.97;;;31.62;37.60
74334;BME280;62753;40.394;-80.022;2023-07-02T01:34:40;96994.28;;;32.66;36.54
74334;BME280;62753;40.394;-80.022;2023-07-02T01:37:06;96994.80;;;32.65;36.65
74334;BME280;62753;40.394;-80.022;2023-07-02T01:39:31;96995.80;;;31.91;37.34
74334;BME280;62753;40.394;-80.022;2023-07-02T01:42:07;96997.68;;;32.03;37.16
74334;BME280;62753;40.394;-80.022;2023-07-02T01:44:23;96998.23;;;31.82;37.38
74334;BME280;62753;40.394;-80.022;2023-07-02T01:46:48;97001.51;;;31.53;37.69
74334;BME280;62753;40.394;-80.022;2023-07-02T01:49:12;97006.34;;;31.43;38.88
74334;BME280;62753;40.394;-80.022;2023-07-02T01:51:38;97015.87;;;31.25;38.74
74334;BME280;62753;40.394;-80.022;2023-07-02T01:54:03;97024.29;;;31.62;38.04
74334;BME280;62753;40.394;-80.022;2023-07-02T01:56:28;97029.53;;;31.77;37.74
74334;BME280;62753;40.394;-80.022;2023-07-02T01:58:54;97030.04;;;31.58;38.44
74334;BME280;62753;40.394;-80.022;2023-07-02T02:01:20;97039.52;;;31.33;38.97
74334;BME280;62753;40.394;-80.022;2023-07-02T02:03:45;97043.52;;;31.74;38.06
74334;BME280;62753;40.394;-80.022;2023-07-02T02:06:10;97040.17;;;31.60;38.83
74334;BME280;62753;40.394;-80.022;2023-07-02T02:08:36;97038.13;;;31.37;38.94
74334;BME280;62753;40.394;-80.022;2023-07-02T02:11:00;97046.66;;;31.09;39.02
74334;BME280;62753;40.394;-80.022;2023-07-02T02:13:25;97054.64;;;31.81;38.48
74334;BME280;62753;40.394;-80.022;2023-07-02T02:15:50;97062.11;;;31.19;38.33
74334;BME280;62753;40.394;-80.022;2023-07-02T02:18:16;97075.13;;;31.37;38.26
74334;BME280;62753;40.394;-80.022;2023-07-02T02:20:41;97079.51;;;31.85;38.62
74334;BME280;62753;40.394;-80.022;2023-07-02T02:23:06;97082.34;;;31.95;37.60
74334;BME280;62753;40.394;-80.022;2023-07-02T02:25:31;97078.66;;;31.78;37.42
74334;BME280;62753;40.394;-80.022;2023-07-02T02:27:56;97075.15;;;32.27;37.46
74334;BME280;62753;40.394;-80.022;2023-07-02T02:30:22;97068.86;;;32.04;37.35
74334;BME280;62753;40.394;-80.022;2023-07-02T02:32:47;97068.73;;;31.49;38.36
74334;BME280;62753;40.394;-80.022;2023-07-02T02:35:13;97067.99;;;31.41;38.22
74334;BME280;62753;40.394;-80.022;2023-07-02T02:37:38;97070.44;;;31.37;38.57
74334;BME280;62753;40.394;-80.022;2023-07-02T02:40:04;97068.59;;;31.34;38.30
74334;BME280;62753;40.394;-80.022;2023-07-02T02:42:29;97070.06;;;31.52;38.78
74334;BME280;62753;40.394;-80.022;2023-07-02T02:44:54;97075.21;;;31.27;38.29
74334;BME280;62753;40.394;-80.022;2023-07-02T02:47:20;97075.58;;;32.30;36.77
74334;BME280;62753;40.394;-80.022;2023-07-02T02:49:45;97081.17;;;32.31;36.93
74334;BME280;62753;40.394;-80.022;2023-07-02T02:52:10;97086.96;;;31.49;38.07
74334;BME280;62753;40.394;-80.022;2023-07-02T02:54:35;97090.24;;;31.57;38.23
74334;BME280;62753;40.394;-80.022;2023-07-02T02:57:01;97083.15;;;31.44;38.54
74334;BME280;62753;40.394;-80.022;2023-07-02T02:59:27;97082.28;;;31.47;38.46
74334;BME280;62753;40.394;-80.022;2023-07-02T03:01:51;97082.28;;;31.90;38.15
74334;BME280;62753;40.394;-80.022;2023-07-02T03:04:16;97081.05;;;31.88;37.75
74334;BME280;62753;40.394;-80.022;2023-07-02T03:06:41;97079.54;;;31.64;37.94
74334;BME280;62753;40.394;-80.022;2023-07-02T03:09:06;97071.69;;;31.51;38.24
74334;BME280;62753;40.394;-80.022;2023-07-02T03:11:32;97064.07;;;31.42;37.80
74334;BME280;62753;40.394;-80.022;2023-07-02T03:13:57;97063.23;;;30.94;38.96
74334;BME280;62753;40.394;-80.022;2023-07-02T03:16:23;97068.90;;;31.39;38.27
74334;BME280;62753;40.394;-80.022;2023-07-02T03:18:48;97068.98;;;31.50;37.68
74334;BME280;62753;40.394;-80.022;2023-07-02T03:21:14;97066.87;;;31.38;38.14
74334;BME280;62753;40.394;-80.022;2023-07-02T03:23:40;97058.48;;;31.38;38.07
74334;BME280;62753;40.394;-80.022;2023-07-02T03:26:06;97060.41;;;31.67;37.78
74334;BME280;62753;40.394;-80.022;2023-07-02T03:28:31;97060.43;;;31.58;37.14
74334;BME280;62753;40.394;-80.022;2023-07-02T03:30:56;97054.95;;;31.53;37.23
74334;BME280;62753;40.394;-80.022;2023-07-02T03:33:22;97061.35;;;31.57;37.05
74334;BME280;62753;40.394;-80.022;2023-07-02T03:35:48;97062.34;;;31.38;36.77
74334;BME280;62753;40.394;-80.022;2023-07-02T03:38:13;97062.59;;;31.31;37.24
74334;BME280;62753;40.394;-80.022;2023-07-02T03:40:39;97057.41;;;31.31;37.60
74334;BME280;62753;40.394;-80.022;2023-07-02T03:43:04;97051.45;;;31.14;37.63
74334;BME280;62753;40.394;-80.022;2023-07-02T03:45:29;97054.27;;;31.06;37.26
74334;BME280;62753;40.394;-80.022;2023-07-02T03:47:54;97050.59;;;31.13;37.46
74334;BME280;62753;40.394;-80.022;2023-07-02T03:50:20;97051.43;;;30.42;37.96
74334;BME280;62753;40.394;-80.022;2023-07-02T03:52:44;97046.69;;;31.10;37.55
74334;BME280;62753;40.394;-80.022;2023-07-02T03:55:10;97042.51;;;30.25;38.48
74334;BME280;62753;40.394;-80.022;2023-07-02T03:57:35;97040.42;;;30.76;38.03
74334;BME280;62753;40.394;-80.022;2023-07-02T04:00:00;97040.31;;;30.42;37.96
74334;BME280;62753;40.394;-80.022;2023-07-02T04:02:26;97042.91;;;30.93;37.86
74334;BME280;62753;40.394;-80.022;2023-07-02T04:04:51;97037.25;;;30.31;38.42
74334;BME280;62753;40.394;-80.022;2023-07-02T04:07:20;97034.84;;;30.85;37.96
74334;BME280;62753;40.394;-80.022;2023-07-02T04:09:42;97032.25;;;29.97;38.93
74334;BME280;62753;40.394;-80.022;2023-07-02T04:12:08;97029.39;;;29.78;39.60
74334;BME280;62753;40.394;-80.022;2023-07-02T04:14:33;97022.81;;;29.81;39.21
74334;BME280;62753;40.394;-80.022;2023-07-02T04:16:58;97018.93;;;30.15;38.94
74334;BME280;62753;40.394;-80.022;2023-07-02T04:19:23;97013.34;;;30.75;37.93
74334;BME280;62753;40.394;-80.022;2023-07-02T04:21:48;97003.82;;;29.81;38.87
74334;BME280;62753;40.394;-80.022;2023-07-02T04:24:14;96998.82;;;30.72;37.78
74334;BME280;62753;40.394;-80.022;2023-07-02T04:26:40;96998.97;;;30.24;38.09
74334;BME280;62753;40.394;-80.022;2023-07-02T04:29:05;96998.33;;;30.93;37.31
74334;BME280;62753;40.394;-80.022;2023-07-02T04:31:31;96992.83;;;30.62;37.39
74334;BME280;62753;40.394;-80.022;2023-07-02T04:33:57;96989.33;;;30.24;38.42
74334;BME280;62753;40.394;-80.022;2023-07-02T04:36:21;96982.77;;;30.57;37.75
74334;BME280;62753;40.394;-80.022;2023-07-02T04:38:47;96980.31;;;30.60;37.66
74334;BME280;62753;40.394;-80.022;2023-07-02T04:41:12;96976.69;;;30.80;37.42
74334;BME280;62753;40.394;-80.022;2023-07-02T04:43:38;96975.26;;;30.85;37.42
74334;BME280;62753;40.394;-80.022;2023-07-02T04:46:04;96973.37;;;31.37;36.81
74334;BME280;62753;40.394;-80.022;2023-07-02T04:48:29;96972.50;;;30.86;36.97
74334;BME280;62753;40.394;-80.022;2023-07-02T04:50:55;96962.77;;;31.43;36.36
74334;BME280;62753;40.394;-80.022;2023-07-02T04:53:20;96960.79;;;31.42;36.68
74334;BME280;62753;40.394;-80.022;2023-07-02T04:55:46;96960.18;;;30.52;37.25
74334;BME280;62753;40.394;-80.022;2023-07-02T04:58:11;96957.68;;;31.15;36.74
74334;BME280;62753;40.394;-80.022;2023-07-02T05:00:36;96957.15;;;30.94;36.92
74334;BME280;62753;40.394;-80.022;2023-07-02T05:03:01;96958.77;;;30.81;37.01
74334;BME280;62753;40.394;-80.022;2023-07-02T05:05:26;96958.17;;;31.25;36.60
74334;BME280;62753;40.394;-80.022;2023-07-02T05:07:53;96962.60;;;30.97;36.80
74334;BME280;62753;40.394;-80.022;2023-07-02T05:10:18;96952.46;;;30.88;37.59
74334;BME280;62753;40.394;-80.022;2023-07-02T05:12:44;96949.85;;;30.78;37.44
74334;BME280;62753;40.394;-80.022;2023-07-02T05:15:10;96950.87;;;30.94;37.30
74334;BME280;62753;40.394;-80.022;2023-07-02T05:17:34;96940.56;;;30.63;38.17
74334;BME280;62753;40.394;-80.022;2023-07-02T05:20:00;96936.10;;;30.59;38.29
74334;BME280;62753;40.394;-80.022;2023-07-02T05:22:26;96933.05;;;30.85;37.45
74334;BME280;62753;40.394;-80.022;2023-07-02T05:24:51;96931.10;;;30.36;38.02
74334;BME280;62753;40.394;-80.022;2023-07-02T05:27:16;96926.95;;;30.33;37.94
74334;BME280;62753;40.394;-80.022;2023-07-02T05:29:42;96924.95;;;30.76;37.60
74334;BME280;62753;40.394;-80.022;2023-07-02T05:32:08;96925.55;;;30.70;37.67
74334;BME280;62753;40.394;-80.022;2023-07-02T05:34:33;96919.45;;;30.96;37.74
74334;BME280;62753;40.394;-80.022;2023-07-02T05:36:58;96911.68;;;30.94;37.15
74334;BME280;62753;40.394;-80.022;2023-07-02T05:39:23;96912.57;;;30.72;37.77
74334;BME280;62753;40.394;-80.022;2023-07-02T05:41:49;96912.87;;;31.34;37.23
74334;BME280;62753;40.394;-80.022;2023-07-02T05:44:15;96916.95;;;30.83;37.41
74334;BME280;62753;40.394;-80.022;2023-07-02T05:46:40;96913.61;;;30.71;37.67
74334;BME280;62753;40.394;-80.022;2023-07-02T05:49:06;96908.33;;;30.99;37.22
74334;BME280;62753;40.394;-80.022;2023-07-02T05:51:32;96909.80;;;30.53;37.40
74334;BME280;62753;40.394;-80.022;2023-07-02T05:53:56;96910.61;;;30.72;37.32
74334;BME280;62753;40.394;-80.022;2023-07-02T05:56:22;96912.11;;;30.65;37.37
74334;BME280;62753;40.394;-80.022;2023-07-02T05:58:49;96906.24;;;30.41;37.63
74334;BME280;62753;40.394;-80.022;2023-07-02T06:01:13;96901.49;;;30.63;37.59
74334;BME280;62753;40.394;-80.022;2023-07-02T06:03:39;96900.40;;;30.38;37.79
74334;BME280;62753;40.394;-80.022;2023-07-02T06:06:05;96905.67;;;30.16;38.34
74334;BME280;62753;40.394;-80.022;2023-07-02T06:08:30;96908.16;;;30.63;37.91
74334;BME280;62753;40.394;-80.022;2023-07-02T06:10:56;96902.37;;;30.47;37.94
74334;BME280;62753;40.394;-80.022;2023-07-02T06:13:22;96894.66;;;30.28;38.33
74334;BME280;62753;40.394;-80.022;2023-07-02T06:15:47;96886.75;;;30.64;37.31
74334;BME280;62753;40.394;-80.022;2023-07-02T06:18:12;96880.13;;;30.89;36.72
74334;BME280;62753;40.394;-80.022;2023-07-02T06:20:37;96882.04;;;30.37;37.67
74334;BME280;62753;40.394;-80.022;2023-07-02T06:23:04;96883.55;;;30.34;37.95
74334;BME280;62753;40.394;-80.022;2023-07-02T06:25:29;96883.69;;;30.12;37.98
74334;BME280;62753;40.394;-80.022;2023-07-02T06:27:53;96881.43;;;30.69;37.80
74334;BME280;62753;40.394;-80.022;2023-07-02T06:30:22;96878.59;;;30.19;38.20
74334;BME280;62753;40.394;-80.022;2023-07-02T06:32:44;96878.05;;;30.51;37.92
74334;BME280;62753;40.394;-80.022;2023-07-02T06:35:09;96875.76;;;31.24;37.23
74334;BME280;62753;40.394;-80.022;2023-07-02T06:37:35;96877.31;;;30.85;37.65
74334;BME280;62753;40.394;-80.022;2023-07-02T06:40:00;96876.95;;;30.38;38.13
74334;BME280;62753;40.394;-80.022;2023-07-02T06:42:26;96875.80;;;30.40;38.47
74334;BME280;62753;40.394;-80.022;2023-07-02T06:44:51;96877.50;;;30.38;38.22
74334;BME280;62753;40.394;-80.022;2023-07-02T06:47:17;96875.63;;;30.29;38.60
74334;BME280;62753;40.394;-80.022;2023-07-02T06:49:42;96874.28;;;30.05;39.06
74334;BME280;62753;40.394;-80.022;2023-07-02T06:52:07;96871.95;;;30.07;38.80
74334;BME280;62753;40.394;-80.022;2023-07-02T06:54:33;96870.23;;;30.05;38.79
74334;BME280;62753;40.394;-80.022;2023-07-02T06:56:58;96870.22;;;30.36;38.46
74334;BME280;62753;40.394;-80.022;2023-07-02T06:59:24;96867.64;;;30.61;37.81
74334;BME280;62753;40.394;-80.022;2023-07-02T07:01:50;96866.00;;;31.06;37.43
74334;BME280;62753;40.394;-80.022;2023-07-02T07:04:15;96863.23;;;30.75;37.66
74334;BME280;62753;40.394;-80.022;2023-07-02T07:06:40;96857.89;;;30.52;38.03
74334;BME280;62753;40.394;-80.022;2023-07-02T07:09:05;96853.24;;;30.36;38.64
74334;BME280;62753;40.394;-80.022;2023-07-02T07:11:31;96857.48;;;30.70;38.21
74334;BME280;62753;40.394;-80.022;2023-07-02T07:13:57;96857.21;;;29.70;38.98
74334;BME280;62753;40.394;-80.022;2023-07-02T07:16:22;96853.16;;;29.43;40.15
74334;BME280;62753;40.394;-80.022;2023-07-02T07:18:48;96845.55;;;29.66;39.98
74334;BME280;62753;40.394;-80.022;2023-07-02T07:21:13;96842.88;;;29.78;39.79
74334;BME280;62753;40.394;-80.022;2023-07-02T07:23:39;96840.72;;;29.77;39.79
74334;BME280;62753;40.394;-80.022;2023-07-02T07:26:04;96837.09;;;29.91;39.29
74334;BME280;62753;40.394;-80.022;2023-07-02T07:28:29;96840.01;;;30.19;38.57
74334;BME280;62753;40.394;-80.022;2023-07-02T07:30:55;96843.20;;;30.56;38.97
74334;BME280;62753;40.394;-80.022;2023-07-02T07:33:20;96841.51;;;30.30;38.89
74334;BME280;62753;40.394;-80.022;2023-07-02T07:35:46;96837.43;;;29.83;39.40
74334;BME280;62753;40.394;-80.022;2023-07-02T07:38:12;96838.41;;;29.71;39.65
74334;BME280;62753;40.394;-80.022;2023-07-02T07:40:36;96844.04;;;30.12;39.37
74334;BME280;62753;40.394;-80.022;2023-07-02T07:43:01;96847.23;;;29.86;39.33
74334;BME280;62753;40.394;-80.022;2023-07-02T07:45:27;96842.68;;;29.45;39.75
74334;BME280;62753;40.394;-80.022;2023-07-02T07:47:53;96843.40;;;30.08;39.19
74334;BME280;62753;40.394;-80.022;2023-07-02T07:50:18;96839.31;;;29.22;40.11
74334;BME280;62753;40.394;-80.022;2023-07-02T07:52:44;96833.40;;;29.19;40.40
74334;BME280;62753;40.394;-80.022;2023-07-02T07:55:10;96826.91;;;29.23;41.10
74334;BME280;62753;40.394;-80.022;2023-07-02T07:57:36;96823.10;;;28.86;41.29
74334;BME280;62753;40.394;-80.022;2023-07-02T08:00:00;96821.96;;;29.49;40.71
74334;BME280;62753;40.394;-80.022;2023-07-02T08:02:25;96821.77;;;29.27;40.54
74334;BME280;62753;40.394;-80.022;2023-07-02T08:04:51;96820.32;;;29.31;40.65
74334;BME280;62753;40.394;-80.022;2023-07-02T08:07:16;96817.15;;;29.60;40.78
74334;BME280;62753;40.394;-80.022;2023-07-02T08:09:42;96815.71;;;29.68;39.56
74334;BME280;62753;40.394;-80.022;2023-07-02T08:12:07;96818.37;;;29.76;39.38
74334;BME280;62753;40.394;-80.022;2023-07-02T08:14:33;96819.02;;;29.20;40.02
74334;BME280;62753;40.394;-80.022;2023-07-02T08:16:58;96823.63;;;29.18;40.11
74334;BME280;62753;40.394;-80.022;2023-07-02T08:19:23;96830.49;;;29.39;39.99
74334;BME280;62753;40.394;-80.022;2023-07-02T08:21:49;96834.28;;;29.34;40.27
74334;BME280;62753;40.394;-80.022;2023-07-02T08:24:14;96828.68;;;29.54;39.72
74334;BME280;62753;40.394;-80.022;2023-07-02T08:26:40;96833.38;;;30.02;38.83
74334;BME280;62753;40.394;-80.022;2023-07-02T08:29:06;96837.78;;;29.52;39.43
74334;BME280;62753;40.394;-80.022;2023-07-02T08:31:30;96843.76;;;29.70;39.49
74334;BME280;62753;40.394;-80.022;2023-07-02T08:33:56;96843.54;;;29.40;39.78
74334;BME280;62753;40.394;-80.022;2023-07-02T08:36:22;96846.39;;;29.59;39.26
74334;BME280;62753;40.394;-80.022;2023-07-02T08:38:48;96848.96;;;29.06;39.60
74334;BME280;62753;40.394;-80.022;2023-07-02T08:41:12;96845.63;;;29.35;39.96
74334;BME280;62753;40.394;-80.022;2023-07-02T08:43:38;96847.33;;;30.11;38.25
74334;BME280;62753;40.394;-80.022;2023-07-02T08:46:03;96846.51;;;29.45;39.52
74334;BME280;62753;40.394;-80.022;2023-07-02T08:48:29;96857.13;;;30.44;37.75
74334;BME280;62753;40.394;-80.022;2023-07-02T08:50:54;96860.00;;;30.54;37.78
74334;BME280;62753;40.394;-80.022;2023-07-02T08:53:20;96861.05;;;29.73;38.88
74334;BME280;62753;40.394;-80.022;2023-07-02T08:55:46;96858.04;;;29.54;38.94
74334;BME280;62753;40.394;-80.022;2023-07-02T08:58:11;96859.26;;;29.75;38.74
74334;BME280;62753;40.394;-80.022;2023-07-02T09:00:36;96851.75;;;29.86;39.14
74334;BME280;62753;40.394;-80.022;2023-07-02T09:03:12;96849.24;;;29.71;39.32
74334;BME280;62753;40.394;-80.022;2023-07-02T09:05:27;96854.11;;;29.79;39.07
74334;BME280;62753;40.394;-80.022;2023-07-02T09:07:53;96859.16;;;29.34;39.43
74334;BME280;62753;40.394;-80.022;2023-07-02T09:10:28;96866.12;;;29.51;39.96
74334;BME280;62753;40.394;-80.022;2023-07-02T09:12:45;96870.70;;;29.59;39.35
74334;BME280;62753;40.394;-80.022;2023-07-02T09:15:10;96873.56;;;29.89;38.86
74334;BME280;62753;40.394;-80.022;2023-07-02T09:17:36;96877.57;;;29.77;39.18
74334;BME280;62753;40.394;-80.022;2023-07-02T09:20:02;96881.80;;;29.06;39.89
74334;BME280;62753;40.394;-80.022;2023-07-02T09:22:26;96882.77;;;29.68;39.10
74334;BME280;62753;40.394;-80.022;2023-07-02T09:24:52;96883.92;;;29.92;38.94
74334;BME280;62753;40.394;-80.022;2023-07-02T09:27:17;96890.95;;;30.12;38.32
74334;BME280;62753;40.394;-80.022;2023-07-02T09:29:43;96898.74;;;30.82;37.81
74334;BME280;62753;40.394;-80.022;2023-07-02T09:32:08;96906.35;;;30.63;37.39
74334;BME280;62753;40.394;-80.022;2023-07-02T09:34:35;96907.05;;;30.83;37.54
74334;BME280;62753;40.394;-80.022;2023-07-02T09:37:00;96909.61;;;30.24;38.25
74334;BME280;62753;40.394;-80.022;2023-07-02T09:39:27;96909.06;;;30.41;38.00
74334;BME280;62753;40.394;-80.022;2023-07-02T09:41:51;96913.98;;;30.21;37.98
74334;BME280;62753;40.394;-80.022;2023-07-02T09:44:16;96908.69;;;30.05;38.90
74334;BME280;62753;40.394;-80.022;2023-07-02T09:46:43;96906.23;;;30.12;38.83
74334;BME280;62753;40.394;-80.022;2023-07-02T09:49:08;96901.05;;;30.09;38.69
74334;BME280;62753;40.394;-80.022;2023-07-02T09:51:33;96908.30;;;30.30;38.43
74334;BME280;62753;40.394;-80.022;2023-07-02T09:53:57;96905.72;;;30.07;38.45
74334;BME280;62753;40.394;-80.022;2023-07-02T09:56:23;96911.72;;;29.88;38.71
74334;BME280;62753;40.394;-80.022;2023-07-02T09:58:49;96916.61;;;29.86;38.91
74334;BME280;62753;40.394;-80.022;2023-07-02T10:01:14;96923.24;;;30.83;37.86
74334;BME280;62753;40.394;-80.022;2023-07-02T10:03:39;96919.94;;;30.14;38.80
74334;BME280;62753;40.394;-80.022;2023-07-02T10:06:06;96919.11;;;30.58;38.71
74334;BME280;62753;40.394;-80.022;2023-07-02T10:08:31;96910.09;;;30.26;39.44
74334;BME280;62753;40.394;-80.022;2023-07-02T10:11:07;96906.86;;;29.93;40.18
74334;BME280;62753;40.394;-80.022;2023-07-02T10:13:26;96893.78;;;29.45;40.76
74334;BME280;62753;40.394;-80.022;2023-07-02T10:15:47;96877.81;;;28.42;43.36
74334;BME280;62753;40.394;-80.022;2023-07-02T10:18:12;96862.20;;;26.59;47.82
74334;BME280;62753;40.394;-80.022;2023-07-02T10:20:39;96858.24;;;27.32;46.45
74334;BME280;62753;40.394;-80.022;2023-07-02T10:23:04;96858.45;;;27.48;45.26
74334;BME280;62753;40.394;-80.022;2023-07-02T10:25:29;96874.99;;;27.56;46.28
74334;BME280;62753;40.394;-80.022;2023-07-02T10:27:54;96886.40;;;28.32;44.67
74334;BME280;62753;40.394;-80.022;2023-07-02T10:30:31;96895.16;;;28.02;44.77
74334;BME280;62753;40.394;-80.022;2023-07-02T10:32:44;96898.93;;;28.40;44.06
74334;BME280;62753;40.394;-80.022;2023-07-02T10:35:15;96896.35;;;28.34;44.07
74334;BME280;62753;40.394;-80.022;2023-07-02T10:37:35;96891.49;;;28.68;43.42
74334;BME280;62753;40.394;-80.022;2023-07-02T10:40:03;96883.70;;;28.49;43.65
74334;BME280;62753;40.394;-80.022;2023-07-02T10:42:26;96878.08;;;28.82;43.03
74334;BME280;62753;40.394;-80.022;2023-07-02T10:44:52;96863.25;;;28.73;42.49
74334;BME280;62753;40.394;-80.022;2023-07-02T10:47:21;96844.69;;;28.57;42.52
74334;BME280;62753;40.394;-80.022;2023-07-02T10:49:42;96850.61;;;28.64;43.13
74334;BME280;62753;40.394;-80.022;2023-07-02T10:52:07;96855.35;;;28.64;42.86
74334;BME280;62753;40.394;-80.022;2023-07-02T10:54:40;96848.47;;;29.19;42.28
74334;BME280;62753;40.394;-80.022;2023-07-02T10:56:57;96849.18;;;28.97;42.60
74334;BME280;62753;40.394;-80.022;2023-07-02T10:59:26;96854.62;;;29.05;41.64
74334;BME280;62753;40.394;-80.022;2023-07-02T11:01:50;96871.58;;;29.64;41.34
74334;BME280;62753;40.394;-80.022;2023-07-02T11:04:13;96879.92;;;29.16;41.73
74334;BME280;62753;40.394;-80.022;2023-07-02T11:06:38;96891.63;;;29.15;41.90
74334;BME280;62753;40.394;-80.022;2023-07-02T11:09:03;96897.42;;;29.22;42.11
74334;BME280;62753;40.394;-80.022;2023-07-02T11:11:29;96900.95;;;29.39;41.76
74334;BME280;62753;40.394;-80.022;2023-07-02T11:13:54;96896.55;;;29.06;42.20
74334;BME280;62753;40.394;-80.022;2023-07-02T11:16:22;96900.71;;;28.70;43.06
74334;BME280;62753;40.394;-80.022;2023-07-02T11:18:45;96920.46;;;28.74;43.80
74334;BME280;62753;40.394;-80.022;2023-07-02T11:21:10;96917.43;;;29.10;42.56
74334;BME280;62753;40.394;-80.022;2023-07-02T11:23:36;96901.86;;;29.08;42.46
74334;BME280;62753;40.394;-80.022;2023-07-02T11:26:02;96902.01;;;29.01;42.68
74334;BME280;62753;40.394;-80.022;2023-07-02T11:28:28;96907.92;;;28.87;42.64
74334;BME280;62753;40.394;-80.022;2023-07-02T11:30:52;96907.31;;;29.91;41.51
74334;BME280;62753;40.394;-80.022;2023-07-02T11:33:17;96908.03;;;29.27;41.94
74334;BME280;62753;40.394;-80.022;2023-07-02T11:35:42;96907.74;;;29.25;41.68
74334;BME280;62753;40.394;-80.022;2023-07-02T11:38:08;96909.62;;;29.82;41.71
74334;BME280;62753;40.394;-80.022;2023-07-02T11:40:34;96911.02;;;29.66;41.21
74334;BME280;62753;40.394;-80.022;2023-07-02T11:43:00;96915.00;;;29.56;41.01
74334;BME280;62753;40.394;-80.022;2023-07-02T11:45:25;96912.33;;;29.40;40.83
74334;BME280;62753;40.394;-80.022;2023-07-02T11:47:50;96918.04;;;29.56;40.82
74334;BME280;62753;40.394;-80.022;2023-07-02T11:50:16;96921.52;;;29.12;41.34
74334;BME280;62753;40.394;-80.022;2023-07-02T11:52:41;96917.01;;;29.58;41.76
74334;BME280;62753;40.394;-80.022;2023-07-02T11:55:07;96915.79;;;29.24;41.51
74334;BME280;62753;40.394;-80.022;2023-07-02T11:57:32;96913.55;;;29.74;41.03
74334;BME280;62753;40.394;-80.022;2023-07-02T11:59:57;96916.95;;;29.22;41.15
74334;BME280;62753;40.394;-80.022;2023-07-02T12:02:22;96921.99;;;29.34;40.61
74334;BME280;62753;40.394;-80.022;2023-07-02T12:04:48;96930.49;;;29.19;41.39
74334;BME280;62753;40.394;-80.022;2023-07-02T12:07:14;96933.98;;;29.12;40.92
74334;BME280;62753;40.394;-80.022;2023-07-02T12:09:38;96914.81;;;29.52;40.49
74334;BME280;62753;40.394;-80.022;2023-07-02T12:12:08;96906.36;;;29.01;42.81
74334;BME280;62753;40.394;-80.022;2023-07-02T12:14:29;96903.58;;;28.63;42.53
74334;BME280;62753;40.394;-80.022;2023-07-02T12:16:54;96910.44;;;29.29;41.85
74334;BME280;62753;40.394;-80.022;2023-07-02T12:19:19;96908.59;;;28.99;42.07
74334;BME280;62753;40.394;-80.022;2023-07-02T12:21:44;96912.02;;;29.21;41.74
74334;BME280;62753;40.394;-80.022;2023-07-02T12:24:10;96912.21;;;29.00;42.65
74334;BME280;62753;40.394;-80.022;2023-07-02T12:26:35;96906.04;;;27.76;44.21
74334;BME280;62753;40.394;-80.022;2023-07-02T12:29:01;96898.99;;;27.51;46.47